createdAt,value
2022-07-25T00:00:42.963Z,21.97
2022-07-25T00:03:10.955Z,21.71
2022-07-25T00:05:38.182Z,21.99
2022-07-25T00:08:05.517Z,21.87
2022-07-25T00:10:32.546Z,21.90
2022-07-25T00:12:59.558Z,21.80
2022-07-25T00:15:26.501Z,21.90
2022-07-25T00:17:53.550Z,21.77
2022-07-25T00:20:20.579Z,21.70
2022-07-25T00:22:47.540Z,21.27
2022-07-25T00:25:14.532Z,21.66
2022-07-25T00:27:41.493Z,21.67
2022-07-25T00:30:09.209Z,21.63
2022-07-25T00:32:36.203Z,21.46
2022-07-25T00:35:03.391Z,21.51
2022-07-25T00:37:30.600Z,21.29
2022-07-25T00:39:57.610Z,21.28
2022-07-25T00:42:24.637Z,21.05
2022-07-25T00:44:52.366Z,21.43
2022-07-25T00:47:19.429Z,21.00
2022-07-25T00:49:46.628Z,21.36
2022-07-25T00:52:14.317Z,21.03
2022-07-25T00:54:41.400Z,21.38
2022-07-25T00:57:08.363Z,20.73
2022-07-25T00:59:35.304Z,21.18
2022-07-25T01:02:03.789Z,20.89
2022-07-25T01:04:31.386Z,21.27
2022-07-25T01:06:58.701Z,21.21
2022-07-25T01:09:26.603Z,21.10
2022-07-25T01:11:53.593Z,21.12
2022-07-25T01:14:22.110Z,21.21
2022-07-25T01:16:49.091Z,20.91
2022-07-25T01:19:17.598Z,20.98
2022-07-25T01:21:44.601Z,20.87
2022-07-25T01:24:12.558Z,21.21
2022-07-25T01:26:40.087Z,21.13
2022-07-25T01:29:07.178Z,20.26
2022-07-25T01:31:34.607Z,21.10
2022-07-25T01:34:01.697Z,21.07
2022-07-25T01:36:28.608Z,21.06
2022-07-25T01:38:55.604Z,21.06
2022-07-25T01:41:22.939Z,21.01
2022-07-25T01:43:50.146Z,20.96
2022-07-25T01:46:17.321Z,20.80
2022-07-25T01:48:44.499Z,20.93
2022-07-25T01:51:11.640Z,20.99
2022-07-25T01:53:38.719Z,20.97
2022-07-25T01:56:06.878Z,20.81
2022-07-25T01:58:36.032Z,21.01
2022-07-25T02:01:03.076Z,20.98
2022-07-25T02:03:30.081Z,20.84
2022-07-25T02:06:02.832Z,20.59
2022-07-25T02:08:30.471Z,20.97
2022-07-25T02:10:58.484Z,20.46
2022-07-25T02:13:25.901Z,20.43
2022-07-25T02:15:52.846Z,20.99
2022-07-25T02:18:19.919Z,20.82
2022-07-25T02:20:46.902Z,20.90
2022-07-25T02:23:13.911Z,20.77
2022-07-25T02:25:41.088Z,21.00
2022-07-25T02:28:08.044Z,20.80
2022-07-25T02:30:38.328Z,20.85
2022-07-25T02:33:05.697Z,20.84
2022-07-25T02:35:32.877Z,20.98
2022-07-25T02:37:59.887Z,21.01
2022-07-25T02:40:27.083Z,20.99
2022-07-25T02:42:54.060Z,20.65
2022-07-25T02:45:21.239Z,21.08
2022-07-25T02:47:48.270Z,20.52
2022-07-25T02:50:15.306Z,21.07
2022-07-25T02:52:43.327Z,21.08
2022-07-25T02:55:11.621Z,21.03
2022-07-25T02:57:38.757Z,21.18
2022-07-25T03:00:07.036Z,20.74
2022-07-25T03:02:34.439Z,21.14
2022-07-25T03:05:01.500Z,20.72
2022-07-25T03:07:30.390Z,20.88
2022-07-25T03:09:57.382Z,21.36
2022-07-25T03:12:24.366Z,21.42
2022-07-25T03:14:51.424Z,21.49
2022-07-25T03:17:18.470Z,21.60
2022-07-25T03:19:45.555Z,21.60
2022-07-25T03:22:12.559Z,21.35
2022-07-25T03:24:39.681Z,21.73
2022-07-25T03:27:06.688Z,21.76
2022-07-25T03:29:33.962Z,21.86
2022-07-25T03:32:01.044Z,21.64
2022-07-25T03:34:28.309Z,21.92
2022-07-25T03:36:55.376Z,21.55
2022-07-25T03:39:22.392Z,21.96
2022-07-25T03:41:49.344Z,22.10
2022-07-25T03:44:16.565Z,22.09
2022-07-25T03:46:43.505Z,22.09
2022-07-25T03:49:10.541Z,21.37
2022-07-25T03:51:37.933Z,22.27
2022-07-25T03:54:06.450Z,22.11
2022-07-25T03:56:37.109Z,22.28
2022-07-25T03:59:11.456Z,22.53
2022-07-25T04:01:39.213Z,22.40
2022-07-25T04:04:07.260Z,22.45
2022-07-25T04:06:34.557Z,22.52
2022-07-25T04:09:02.249Z,22.44
2022-07-25T04:11:30.960Z,22.06
2022-07-25T04:13:58.874Z,22.59
2022-07-25T04:16:27.815Z,22.65
2022-07-25T04:18:56.220Z,22.66
2022-07-25T04:21:24.568Z,22.73
2022-07-25T04:23:51.598Z,22.55
2022-07-25T04:26:19.441Z,22.84
2022-07-25T04:28:46.593Z,22.58
2022-07-25T04:31:14.018Z,22.98
2022-07-25T04:33:41.313Z,22.99
2022-07-25T04:36:09.078Z,22.98
2022-07-25T04:38:36.292Z,23.25
2022-07-25T04:41:04.370Z,22.82
2022-07-25T04:43:31.599Z,23.31
2022-07-25T04:45:58.797Z,22.75
2022-07-25T04:48:25.896Z,23.41
2022-07-25T04:50:53.054Z,23.46
2022-07-25T04:53:20.026Z,23.65
2022-07-25T04:55:47.068Z,23.59
2022-07-25T04:58:14.058Z,23.46
2022-07-25T05:00:41.224Z,23.68
2022-07-25T05:03:08.249Z,23.83
2022-07-25T05:05:35.227Z,23.84
2022-07-25T05:08:02.334Z,23.89
2022-07-25T05:10:30.076Z,23.54
2022-07-25T05:12:57.150Z,23.97
2022-07-25T05:15:24.385Z,23.38
2022-07-25T05:17:51.608Z,24.04
2022-07-25T05:20:19.020Z,23.97
2022-07-25T05:22:46.019Z,24.06
2022-07-25T05:25:13.075Z,24.07
2022-07-25T05:27:41.148Z,24.09
2022-07-25T05:30:10.145Z,24.09
2022-07-25T05:32:37.825Z,24.10
2022-07-25T05:35:08.087Z,24.24
2022-07-25T05:37:36.479Z,24.31
2022-07-25T05:40:05.094Z,24.22
2022-07-25T05:42:32.027Z,24.22
2022-07-25T05:44:59.051Z,24.20
2022-07-25T05:47:26.015Z,24.85
2022-07-25T05:49:52.968Z,24.96
2022-07-25T05:52:19.968Z,25.01
2022-07-25T05:54:46.963Z,24.84
2022-07-25T05:57:13.983Z,24.72
2022-07-25T05:59:41.059Z,24.80
2022-07-25T06:02:08.403Z,24.54
2022-07-25T06:04:35.526Z,25.02
2022-07-25T06:07:02.738Z,25.16
2022-07-25T06:09:32.006Z,25.07
2022-07-25T06:12:01.085Z,25.25
2022-07-25T06:14:29.749Z,24.96
2022-07-25T06:16:57.294Z,25.37
2022-07-25T06:19:24.458Z,25.30
2022-07-25T06:21:51.531Z,25.29
2022-07-25T06:24:18.702Z,25.46
2022-07-25T06:26:45.683Z,25.67
2022-07-25T06:29:12.787Z,25.81
2022-07-25T06:31:40.087Z,25.58
2022-07-25T06:34:07.599Z,26.42
2022-07-25T06:36:35.010Z,26.55
2022-07-25T06:39:02.541Z,26.47
2022-07-25T06:41:29.712Z,26.74
2022-07-25T06:43:56.719Z,26.91
2022-07-25T06:46:23.845Z,26.54
2022-07-25T06:48:50.982Z,26.93
2022-07-25T06:51:17.998Z,26.86
2022-07-25T06:53:44.937Z,27.10
2022-07-25T06:56:17.197Z,27.20
2022-07-25T06:58:45.075Z,27.58
2022-07-25T07:01:12.513Z,27.71
2022-07-25T07:03:40.440Z,27.72
2022-07-25T07:06:10.827Z,27.49
2022-07-25T07:08:38.253Z,27.50
2022-07-25T07:11:06.230Z,27.54
2022-07-25T07:13:34.215Z,27.21
2022-07-25T07:16:01.301Z,27.37
2022-07-25T07:18:28.489Z,27.59
2022-07-25T07:20:55.496Z,27.44
2022-07-25T07:23:22.475Z,27.35
2022-07-25T07:25:51.727Z,27.62
2022-07-25T07:28:19.206Z,27.49
2022-07-25T07:33:33.673Z,26.91
2022-07-25T07:36:02.355Z,27.29
2022-07-25T07:38:29.376Z,27.15
2022-07-25T07:40:56.353Z,26.69
2022-07-25T07:43:29.190Z,26.83
2022-07-25T07:45:57.010Z,26.62
2022-07-25T07:48:24.064Z,26.67
2022-07-25T07:50:51.289Z,26.39
2022-07-25T07:53:18.275Z,26.67
2022-07-25T07:55:45.538Z,26.62
2022-07-25T07:58:17.395Z,26.39
2022-07-25T08:00:46.165Z,26.64
2022-07-25T08:03:13.802Z,26.82
2022-07-25T08:05:43.688Z,26.98
2022-07-25T08:08:13.006Z,26.54
2022-07-25T08:10:42.160Z,26.63
2022-07-25T08:13:21.055Z,26.74
2022-07-25T08:15:54.663Z,26.37
2022-07-25T08:18:21.960Z,26.60
2022-07-25T08:20:50.158Z,26.99
2022-07-25T08:23:17.819Z,27.11
2022-07-25T08:25:45.774Z,26.86
2022-07-25T08:28:13.749Z,27.46
2022-07-25T08:30:42.335Z,27.52
2022-07-25T08:33:13.421Z,27.14
2022-07-25T08:35:45.547Z,27.59
2022-07-25T08:38:12.512Z,27.22
2022-07-25T08:40:39.704Z,27.50
2022-07-25T08:43:09.090Z,27.60
2022-07-25T08:45:37.082Z,27.52
2022-07-25T08:48:04.376Z,27.20
2022-07-25T08:50:31.420Z,27.44
2022-07-25T08:53:31.010Z,27.39
2022-07-25T08:55:46.828Z,27.55
2022-07-25T08:58:15.567Z,27.09
2022-07-25T09:00:42.864Z,27.24
2022-07-25T09:03:10.420Z,27.02
2022-07-25T09:05:38.634Z,27.47
2022-07-25T09:08:19.884Z,27.07
2022-07-25T09:10:49.872Z,26.97
2022-07-25T09:13:17.743Z,27.34
2022-07-25T09:15:53.921Z,27.17
2022-07-25T09:18:26.802Z,27.04
2022-07-25T09:20:59.183Z,26.95
2022-07-25T09:23:38.362Z,26.90
2022-07-25T09:26:08.343Z,27.04
2022-07-25T09:28:43.696Z,27.05
2022-07-25T09:31:11.589Z,26.64
2022-07-25T09:33:48.027Z,27.10
2022-07-25T09:36:15.215Z,27.21
2022-07-25T09:38:53.030Z,26.49
2022-07-25T09:41:20.165Z,26.36
2022-07-25T09:43:47.766Z,26.71
2022-07-25T09:46:14.908Z,26.56
2022-07-25T09:48:45.323Z,26.17
2022-07-25T09:51:12.592Z,26.46
2022-07-25T09:53:40.890Z,26.33
2022-07-25T09:56:08.802Z,25.92
2022-07-25T09:58:35.804Z,26.24
2022-07-25T10:01:07.529Z,26.19
2022-07-25T10:04:15.190Z,26.46
2022-07-25T10:07:06.422Z,26.34
2022-07-25T10:09:33.807Z,26.48
2022-07-25T10:12:06.180Z,26.77
2022-07-25T10:14:34.102Z,26.75
2022-07-25T10:17:02.089Z,27.05
2022-07-25T10:19:54.286Z,27.03
2022-07-25T10:22:56.261Z,27.29
2022-07-25T10:25:24.216Z,27.45
2022-07-25T10:28:00.122Z,27.68
2022-07-25T10:30:34.212Z,27.26
2022-07-25T10:33:21.614Z,27.94
2022-07-25T10:35:48.665Z,27.06
2022-07-25T10:38:25.314Z,27.88
2022-07-25T10:40:52.825Z,28.01
2022-07-25T10:43:25.642Z,27.98
2022-07-25T10:45:54.291Z,28.10
2022-07-25T10:48:23.691Z,27.97
2022-07-25T10:50:59.916Z,28.16
2022-07-25T10:53:48.504Z,27.86
2022-07-25T10:56:20.765Z,27.80
2022-07-25T10:59:01.716Z,27.80
2022-07-25T11:01:33.654Z,27.58
2022-07-25T11:04:06.818Z,27.33
2022-07-25T11:06:35.322Z,27.26
2022-07-25T11:09:18.066Z,27.56
2022-07-25T11:11:48.826Z,27.82
2022-07-25T11:14:31.333Z,28.11
2022-07-25T11:17:09.439Z,28.28
2022-07-25T11:19:36.538Z,28.28
2022-07-25T11:22:06.449Z,28.47
2022-07-25T11:24:36.998Z,28.37
2022-07-25T11:27:09.730Z,28.31
2022-07-25T11:29:39.365Z,28.42
2022-07-25T11:32:10.878Z,28.52
2022-07-25T11:34:54.023Z,28.49
2022-07-25T11:37:21.849Z,28.65
2022-07-25T11:39:49.520Z,28.52
2022-07-25T11:42:18.945Z,27.94
2022-07-25T11:44:51.644Z,27.88
2022-07-25T11:47:30.964Z,28.33
2022-07-25T11:50:04.223Z,28.04
2022-07-25T11:52:32.782Z,28.60
2022-07-25T11:55:02.517Z,28.24
2022-07-25T11:57:33.668Z,28.80
2022-07-25T12:00:02.859Z,28.77
2022-07-25T12:02:37.171Z,28.61
2022-07-25T12:05:09.338Z,28.51
2022-07-25T12:07:48.770Z,28.49
2022-07-25T12:10:18.582Z,28.46
2022-07-25T12:12:51.338Z,28.12
2022-07-25T12:15:24.513Z,28.50
2022-07-25T12:17:52.795Z,28.32
2022-07-25T12:20:26.029Z,28.16
2022-07-25T12:22:58.190Z,27.76
2022-07-25T12:25:30.474Z,28.13
2022-07-25T12:28:00.254Z,28.14
2022-07-25T12:30:28.771Z,27.96
2022-07-25T12:32:56.670Z,27.58
2022-07-25T12:35:24.075Z,27.86
2022-07-25T12:37:51.949Z,27.41
2022-07-25T12:40:19.843Z,27.66
2022-07-25T12:42:47.535Z,27.39
2022-07-25T12:45:15.793Z,27.53
2022-07-25T12:47:44.222Z,27.61
2022-07-25T12:50:11.589Z,27.90
2022-07-25T12:52:38.686Z,27.85
2022-07-25T12:55:10.704Z,28.03
2022-07-25T12:57:38.705Z,27.58
2022-07-25T13:00:08.377Z,28.13
2022-07-25T13:02:35.700Z,28.02
2022-07-25T13:05:02.950Z,27.36
2022-07-25T13:07:30.803Z,27.99
2022-07-25T13:09:57.819Z,28.02
2022-07-25T13:12:25.267Z,28.08
2022-07-25T13:14:52.363Z,28.02
2022-07-25T13:17:22.479Z,28.15
2022-07-25T13:19:54.420Z,28.05
2022-07-25T13:22:21.488Z,28.12
2022-07-25T13:24:48.574Z,27.94
2022-07-25T13:27:18.961Z,28.10
2022-07-25T13:29:47.217Z,27.85
2022-07-25T13:32:14.418Z,27.63
2022-07-25T13:34:41.554Z,27.98
2022-07-25T13:37:08.574Z,27.73
2022-07-25T13:39:35.945Z,27.82
2022-07-25T13:42:03.474Z,27.69
2022-07-25T13:44:30.518Z,27.81
2022-07-25T13:46:58.783Z,27.81
2022-07-25T13:49:26.151Z,27.78
2022-07-25T13:51:53.449Z,27.76
2022-07-25T13:54:21.249Z,27.34
2022-07-25T13:56:48.333Z,27.62
2022-07-25T13:59:21.005Z,27.32
2022-07-25T14:01:48.974Z,27.58
2022-07-25T14:04:16.204Z,27.63
2022-07-25T14:06:43.584Z,27.49
2022-07-25T14:09:11.085Z,27.56
2022-07-25T14:11:38.320Z,27.63
2022-07-25T14:14:05.276Z,27.19
2022-07-25T14:16:33.853Z,27.50
2022-07-25T14:19:02.280Z,27.53
2022-07-25T14:21:30.221Z,27.37
2022-07-25T14:23:57.342Z,27.32
2022-07-25T14:26:24.570Z,27.59
2022-07-25T14:28:51.640Z,27.54
2022-07-25T14:31:18.736Z,27.55
2022-07-25T14:33:45.862Z,27.11
2022-07-25T14:36:12.976Z,27.54
2022-07-25T14:38:39.957Z,27.51
2022-07-25T14:41:12.340Z,27.09
2022-07-25T14:43:41.192Z,27.51
2022-07-25T14:46:09.174Z,27.46
2022-07-25T14:48:38.791Z,27.37
2022-07-25T14:51:07.030Z,27.42
2022-07-25T14:53:35.305Z,27.14
2022-07-25T14:56:04.874Z,27.07
2022-07-25T14:58:33.648Z,27.57
2022-07-25T15:01:01.276Z,27.49
2022-07-25T15:03:28.345Z,27.48
2022-07-25T15:05:55.428Z,27.56
2022-07-25T15:08:23.081Z,27.52
2022-07-25T15:10:50.220Z,27.32
2022-07-25T15:13:33.187Z,27.38
2022-07-25T15:16:01.397Z,27.25
2022-07-25T15:18:29.138Z,27.23
2022-07-25T15:20:56.200Z,25.71
2022-07-25T15:23:25.212Z,26.99
2022-07-25T15:26:02.925Z,26.88
2022-07-25T15:28:35.641Z,26.58
2022-07-25T15:31:03.529Z,26.56
2022-07-25T15:33:31.495Z,26.30
2022-07-25T15:35:58.809Z,26.19
2022-07-25T15:38:26.025Z,25.51
2022-07-25T15:40:53.122Z,25.81
2022-07-25T15:43:20.214Z,25.56
2022-07-25T15:45:47.263Z,25.42
2022-07-25T15:48:16.353Z,25.29
2022-07-25T15:50:46.096Z,25.23
2022-07-25T15:53:13.982Z,25.13
2022-07-25T15:55:42.396Z,24.93
2022-07-25T15:58:10.439Z,24.31
2022-07-25T16:00:38.709Z,24.52
2022-07-25T16:03:06.241Z,24.40
2022-07-25T16:05:34.168Z,24.22
2022-07-25T16:08:02.261Z,24.00
2022-07-25T16:10:31.740Z,23.93
2022-07-25T16:12:59.437Z,23.79
2022-07-25T16:15:26.905Z,23.33
2022-07-25T16:18:01.781Z,23.14
2022-07-25T16:20:31.671Z,22.96
2022-07-25T16:22:59.478Z,22.95
2022-07-25T16:25:28.701Z,23.05
2022-07-25T16:27:56.834Z,22.93
2022-07-25T16:30:24.069Z,22.72
2022-07-25T16:32:51.202Z,22.61
2022-07-25T16:35:18.229Z,22.29
2022-07-25T16:37:45.331Z,22.69
2022-07-25T16:40:12.652Z,22.43
2022-07-25T16:42:40.074Z,22.53
2022-07-25T16:45:07.642Z,22.06
2022-07-25T16:47:34.840Z,22.48
2022-07-25T16:50:02.384Z,22.41
2022-07-25T16:52:30.219Z,22.41
2022-07-25T16:54:57.221Z,21.93
2022-07-25T16:57:25.151Z,22.31
2022-07-25T16:59:55.535Z,21.73
2022-07-25T17:02:27.508Z,21.96
2022-07-25T17:04:56.975Z,21.90
2022-07-25T17:07:24.708Z,22.01
2022-07-25T17:09:52.198Z,21.39
2022-07-25T17:12:19.584Z,21.51
2022-07-25T17:14:46.673Z,21.90
2022-07-25T17:17:13.958Z,21.64
2022-07-25T17:19:41.080Z,21.67
2022-07-25T17:22:09.566Z,19.98
2022-07-25T17:24:37.009Z,21.82
2022-07-25T17:27:04.490Z,21.60
2022-07-25T17:29:31.783Z,21.87
2022-07-25T17:31:58.897Z,21.82
2022-07-25T17:34:26.990Z,21.50
2022-07-25T17:36:55.148Z,21.84
2022-07-25T17:39:22.194Z,21.72
2022-07-25T17:41:49.329Z,21.41
2022-07-25T17:44:16.749Z,21.42
2022-07-25T17:46:45.084Z,21.69
2022-07-25T17:49:12.199Z,21.87
2022-07-25T17:51:39.331Z,21.64
2022-07-25T17:54:06.686Z,21.36
2022-07-25T17:56:34.103Z,21.67
2022-07-25T17:59:02.058Z,21.67
2022-07-25T18:01:29.507Z,21.82
2022-07-25T18:03:57.187Z,21.72
2022-07-25T18:06:29.550Z,21.75
2022-07-25T18:08:57.787Z,21.71
2022-07-25T18:11:25.156Z,21.02
2022-07-25T18:13:52.232Z,21.75
2022-07-25T18:16:19.369Z,21.73
2022-07-25T18:18:46.553Z,21.63
2022-07-25T18:21:13.508Z,21.68
2022-07-25T18:23:40.533Z,21.67
2022-07-25T18:26:09.272Z,21.32
2022-07-25T18:28:36.432Z,21.52
2022-07-25T18:31:04.643Z,21.76
2022-07-25T18:33:31.809Z,21.26
2022-07-25T18:36:01.778Z,21.33
2022-07-25T18:38:31.646Z,21.72
2022-07-25T18:41:19.282Z,21.62
2022-07-25T18:43:45.757Z,21.39
2022-07-25T18:46:15.240Z,21.76
2022-07-25T18:48:44.525Z,21.40
2022-07-25T18:51:12.056Z,21.81
2022-07-25T18:53:39.089Z,21.69
2022-07-25T18:56:06.363Z,21.77
2022-07-25T18:58:33.631Z,21.71
2022-07-25T19:01:03.059Z,21.37
2022-07-25T19:03:32.804Z,21.43
2022-07-25T19:06:03.396Z,21.78
2022-07-25T19:08:31.135Z,21.80
2022-07-25T19:10:58.168Z,21.68
2022-07-25T19:13:47.556Z,21.73
2022-07-25T19:16:12.373Z,21.76
2022-07-25T19:18:39.883Z,21.61
2022-07-25T19:23:38.079Z,21.73
2022-07-25T19:26:05.552Z,21.75
2022-07-25T19:28:32.528Z,21.73
2022-07-25T19:30:59.570Z,21.67
2022-07-25T19:33:34.744Z,21.25
2022-07-25T19:36:04.324Z,21.69
2022-07-25T19:38:31.630Z,21.72
2022-07-25T19:40:59.182Z,21.30
2022-07-25T19:43:26.417Z,21.63
2022-07-25T19:45:53.682Z,21.63
2022-07-25T19:48:24.010Z,20.83
2022-07-25T19:50:52.566Z,21.65
2022-07-25T19:53:19.632Z,21.60
2022-07-25T19:55:46.674Z,21.55
2022-07-25T19:58:13.602Z,21.57
2022-07-25T20:00:40.665Z,21.45
2022-07-25T20:03:07.872Z,21.55
2022-07-25T20:05:34.979Z,21.55
2022-07-25T20:08:02.024Z,21.56
2022-07-25T20:10:29.177Z,21.40
2022-07-25T20:13:00.964Z,21.35
2022-07-25T20:15:28.824Z,21.57
2022-07-25T20:17:56.933Z,21.58
2022-07-25T20:20:24.990Z,21.55
2022-07-25T20:22:52.891Z,21.55
2022-07-25T20:25:19.847Z,20.92
2022-07-25T20:27:49.738Z,21.40
2022-07-25T20:30:17.437Z,21.52
2022-07-25T20:32:44.445Z,20.99
2022-07-25T20:35:11.465Z,21.05
2022-07-25T20:37:38.493Z,21.31
2022-07-25T20:40:06.879Z,21.32
2022-07-25T20:42:36.813Z,21.27
2022-07-25T20:45:05.852Z,21.47
2022-07-25T20:47:32.900Z,21.31
2022-07-25T20:50:00.534Z,20.86
2022-07-25T20:52:31.310Z,20.95
2022-07-25T20:54:58.261Z,21.46
2022-07-25T20:57:25.262Z,21.29
2022-07-25T20:59:52.333Z,21.27
2022-07-25T21:02:19.382Z,21.40
2022-07-25T21:04:48.653Z,20.59
2022-07-25T21:07:16.938Z,21.09
2022-07-25T21:09:44.480Z,21.45
2022-07-25T21:12:11.558Z,21.37
2022-07-25T21:14:38.668Z,21.43
2022-07-25T21:17:05.953Z,21.16
2022-07-25T21:19:33.149Z,20.80
2022-07-25T21:22:00.090Z,21.32
2022-07-25T21:24:27.069Z,21.18
2022-07-25T21:26:54.023Z,21.28
2022-07-25T21:29:21.138Z,20.06
2022-07-25T21:31:48.416Z,21.23
2022-07-25T21:34:15.538Z,21.18
2022-07-25T21:36:42.600Z,21.34
2022-07-25T21:39:10.099Z,21.34
2022-07-25T21:41:37.302Z,21.21
2022-07-25T21:44:04.445Z,21.34
2022-07-25T21:46:31.771Z,21.25
2022-07-25T21:49:17.663Z,21.26
2022-07-25T21:52:04.819Z,20.87
2022-07-25T21:54:32.124Z,21.19
2022-07-25T21:56:59.125Z,21.16
2022-07-25T21:59:26.146Z,21.22
2022-07-25T22:01:53.114Z,21.21
2022-07-25T22:04:21.572Z,20.95
2022-07-25T22:06:48.695Z,20.75
2022-07-25T22:09:15.767Z,21.19
2022-07-25T22:11:46.491Z,21.15
2022-07-25T22:14:14.569Z,20.82
2022-07-25T22:16:42.597Z,21.04
2022-07-25T22:19:10.003Z,21.16
2022-07-25T22:21:37.199Z,21.26
2022-07-25T22:24:04.384Z,21.19
2022-07-25T22:26:31.369Z,21.23
2022-07-25T22:28:58.498Z,21.09
2022-07-25T22:31:25.582Z,21.03
2022-07-25T22:33:52.687Z,20.21
2022-07-25T22:36:19.780Z,21.06
2022-07-25T22:38:46.756Z,21.02
2022-07-25T22:41:13.832Z,19.79
2022-07-25T22:43:53.153Z,20.71
2022-07-25T22:46:28.579Z,20.48
2022-07-25T22:48:56.151Z,20.91
2022-07-25T22:51:23.602Z,20.21
2022-07-25T22:53:50.913Z,20.83
2022-07-25T22:56:18.036Z,20.84
2022-07-25T22:58:45.741Z,20.82
2022-07-25T23:01:17.814Z,20.80
2022-07-25T23:03:45.602Z,20.80
2022-07-25T23:06:13.442Z,20.72
2022-07-25T23:08:40.936Z,20.81
2022-07-25T23:11:08.594Z,20.57
2022-07-25T23:13:36.349Z,20.80
2022-07-25T23:16:04.154Z,20.81
2022-07-25T23:18:32.189Z,20.40
2022-07-25T23:20:59.424Z,20.74
2022-07-25T23:23:26.437Z,20.51
2022-07-25T23:25:53.454Z,20.63
2022-07-25T23:28:21.024Z,20.66
2022-07-25T23:30:48.107Z,20.25
2022-07-25T23:33:15.083Z,20.73
2022-07-25T23:35:42.413Z,20.60
2022-07-25T23:38:10.913Z,20.60
2022-07-25T23:40:37.948Z,20.44
2022-07-25T23:43:05.127Z,20.31
2022-07-25T23:45:32.849Z,20.67
2022-07-25T23:47:59.878Z,20.28
2022-07-25T23:50:26.940Z,20.70
2022-07-25T23:52:53.893Z,20.45
2022-07-25T23:55:20.887Z,20.67
2022-07-25T23:57:47.934Z,20.64
